Airfield :
LOGIN :

Register | Disclaimer

   EN    FR    IT 

 










Legend :    VFR   Marginal VFR   IFR   Intensive IFR   Very Intensive IFR
Visi :
Ceiling :
>= 8 km
>= 3000ft
5 to 8 km
1000 to 3000 ft
1500m to 5 km
500 to 1000 ft
800 to 1500m
200 to 500 ft
< 800m
< 200 ft
Symbols :   Thunderstorms  Fog  Heavy snow  Heavy precipitations  Wind > 20 kt
SIGMETs :     Misc.  Thunderstorms  Icing  Turbulence  Mountain Waves  Volcanic Ashes







- Airport Elevation : 436 ft
- IATA code : BTS


LZIB - Bratislava

CURRENT METAR :
  • 181500Z 35013KT 9999 FEW042 BKN098 25/15 Q1017 NOSIG

EXPIRED METARs :
  • 181430Z 35013KT 9999 FEW040 BKN085 25/15 Q1017 NOSIG
  • 181400Z 32017KT 9999 FEW042 SCT078 27/15 Q1016 NOSIG
  • 181330Z 32013KT 9999 FEW036 SCT077 25/15 Q1017 NOSIG
  • 181300Z 33016KT 9999 FEW029 BKN100 24/15 Q1017 NOSIG
  • 181230Z 32016KT 9999 FEW048 SCT053 BKN071 26/15 Q1017 NOSIG

TAF TAF LZIB
Valid from the 18 at 12:00 until the 19 at 12:00 UTC


181100Z 1812/1912 32012KT 9999 FEW040 SCT070
TEMPO 1815/1816 34015G25KT -SHRA FEW040CB BKN060
BECMG 1818/1820 CAVOK
No reported NOTAMs for that airfield.



MET'MAP, your aeronautical weather chart ! - Copyright ORBIFLY December 2007 - Disclaimer

ORBIFLY MET'MAP TEAM :

Programming & Development : Alexandra Zaïnal
Concept & Development : Baudouin d'Aumeries
Co-Development & Prog : Marc-Olivier Méhu
Technical & hardware support : Manuel Goepfert

Contact : metmap@orbifly.com




SOURCES & CREDITS :

   NOAA